createdAt,value
2016-09-02T00:00:42.891Z,0
2016-09-02T00:01:42.872Z,0
2016-09-02T00:02:44.117Z,0
2016-09-02T00:03:58.383Z,0
2016-09-02T00:04:42.778Z,0
2016-09-02T00:05:43.554Z,0
2016-09-02T00:06:43.754Z,0
2016-09-02T00:07:43.865Z,0
2016-09-02T00:08:42.664Z,0
2016-09-02T00:10:43.891Z,0
2016-09-02T00:11:42.596Z,0
2016-09-02T00:12:43.515Z,0
2016-09-02T00:13:43.342Z,0
2016-09-02T00:14:42.535Z,0
2016-09-02T00:15:42.541Z,0
2016-09-02T00:16:42.487Z,0
2016-09-02T00:17:42.582Z,0
2016-09-02T00:19:42.465Z,0
2016-09-02T00:20:58.307Z,0
2016-09-02T00:21:42.373Z,0
2016-09-02T00:23:42.379Z,0
2016-09-02T00:24:43.097Z,0
2016-09-02T00:25:42.285Z,0
2016-09-02T00:26:43.203Z,0
2016-09-02T00:27:42.995Z,0
2016-09-02T00:28:42.187Z,0
2016-09-02T00:29:42.185Z,0
2016-09-02T00:30:43.139Z,0
2016-09-02T00:31:42.201Z,0
2016-09-02T00:32:42.123Z,0
2016-09-02T00:33:42.057Z,0
2016-09-02T00:34:43.633Z,0
2016-09-02T00:35:58.399Z,0
2016-09-02T00:36:41.976Z,0
2016-09-02T00:37:41.973Z,0
2016-09-02T00:38:41.951Z,0
2016-09-02T00:39:42.735Z,0
2016-09-02T00:40:41.958Z,0
2016-09-02T00:41:42.652Z,0
2016-09-02T00:43:41.814Z,0
2016-09-02T00:44:57.630Z,0
2016-09-02T00:45:41.839Z,0
2016-09-02T00:46:46.762Z,0
2016-09-02T00:47:41.731Z,0
2016-09-02T00:48:56.364Z,0
2016-09-02T00:49:42.450Z,0
2016-09-02T00:50:41.736Z,0
2016-09-02T00:51:41.981Z,0
2016-09-02T00:52:42.368Z,0
2016-09-02T00:53:41.592Z,0
2016-09-02T00:54:41.527Z,0
2016-09-02T00:55:41.522Z,0
2016-09-02T00:56:43.381Z,0
2016-09-02T00:57:42.254Z,0
2016-09-02T00:58:41.461Z,0
2016-09-02T00:59:42.311Z,0
2016-09-02T01:00:42.178Z,0
2016-09-02T01:01:41.385Z,0
2016-09-02T01:02:41.469Z,0
2016-09-02T01:03:42.108Z,0
2016-09-02T01:04:42.252Z,0
2016-09-02T01:05:41.355Z,0
2016-09-02T01:07:10.652Z,0
2016-09-02T01:07:41.194Z,0
2016-09-02T01:08:41.377Z,0
2016-09-02T01:09:42.170Z,0
2016-09-02T01:10:42.033Z,0
2016-09-02T01:11:41.155Z,0
2016-09-02T01:12:41.942Z,0
2016-09-02T01:13:42.728Z,0
2016-09-02T01:14:41.832Z,0
2016-09-02T01:15:41.016Z,0
2016-09-02T01:16:42.646Z,0
2016-09-02T01:17:41.014Z,0
2016-09-02T01:18:40.974Z,0
2016-09-02T01:19:41.700Z,0
2016-09-02T01:20:40.907Z,0
2016-09-02T01:21:41.658Z,0
2016-09-02T01:22:55.513Z,0
2016-09-02T01:23:40.804Z,0
2016-09-02T01:24:41.658Z,0
2016-09-02T01:25:41.607Z,0
2016-09-02T01:26:41.520Z,0
2016-09-02T01:27:41.628Z,0
2016-09-02T01:28:40.782Z,0
2016-09-02T01:29:40.675Z,0
2016-09-02T01:30:41.534Z,0
2016-09-02T01:31:42.211Z,0
2016-09-02T01:32:40.597Z,0
2016-09-02T01:33:55.243Z,0
2016-09-02T01:34:41.708Z,0
2016-09-02T01:35:55.193Z,0
2016-09-02T01:36:40.584Z,0
2016-09-02T01:37:45.598Z,0
2016-09-02T01:38:40.467Z,0
2016-09-02T01:39:41.182Z,0
2016-09-02T01:40:41.188Z,0
2016-09-02T01:41:41.131Z,0
2016-09-02T01:42:41.138Z,0
2016-09-02T01:43:41.091Z,0
2016-09-02T01:44:55.300Z,0
2016-09-02T01:45:40.284Z,0
2016-09-02T01:46:40.358Z,0
2016-09-02T01:47:40.241Z,0
2016-09-02T01:48:41.336Z,0
2016-09-02T01:49:41.809Z,0
2016-09-02T01:50:41.333Z,0
2016-09-02T01:51:41.601Z,0
2016-09-02T01:52:40.110Z,0
2016-09-02T01:53:40.958Z,0
2016-09-02T01:54:40.960Z,0
2016-09-02T01:55:41.948Z,0
2016-09-02T01:56:41.962Z,0
2016-09-02T01:57:39.989Z,0
2016-09-02T01:58:39.934Z,0
2016-09-02T01:59:40.023Z,0
2016-09-02T02:00:39.917Z,0
2016-09-02T02:01:39.844Z,0
2016-09-02T02:02:39.845Z,0
2016-09-02T02:03:39.789Z,0
2016-09-02T02:04:39.768Z,0
2016-09-02T02:05:54.417Z,0
2016-09-02T02:06:39.733Z,0
2016-09-02T02:07:39.689Z,0
2016-09-02T02:08:40.440Z,0
2016-09-02T02:09:40.560Z,0
2016-09-02T02:10:41.076Z,0
2016-09-02T02:11:40.469Z,0
2016-09-02T02:12:40.496Z,0
2016-09-02T02:13:54.213Z,0
2016-09-02T02:14:55.324Z,0
2016-09-02T02:15:40.705Z,0
2016-09-02T02:16:40.312Z,0
2016-09-02T02:17:39.432Z,0
2016-09-02T02:18:39.634Z,0
2016-09-02T02:19:39.576Z,0
2016-09-02T02:20:39.399Z,0
2016-09-02T02:21:40.157Z,0
2016-09-02T02:22:41.653Z,0
2016-09-02T02:23:39.297Z,0
2016-09-02T02:24:39.267Z,0
2016-09-02T02:25:40.049Z,0
2016-09-02T02:26:39.234Z,0
2016-09-02T02:27:40.738Z,0
2016-09-02T02:28:40.751Z,0
2016-09-02T02:29:40.137Z,0
2016-09-02T02:30:40.006Z,0
2016-09-02T02:31:39.994Z,0
2016-09-02T02:32:40.813Z,0
2016-09-02T02:33:39.813Z,0
2016-09-02T02:34:39.030Z,0
2016-09-02T02:35:39.766Z,0
2016-09-02T02:36:38.990Z,0
2016-09-02T02:37:40.911Z,0
2016-09-02T02:38:40.282Z,0
2016-09-02T02:39:38.979Z,0
2016-09-02T02:40:38.859Z,0
2016-09-02T02:41:39.608Z,0
2016-09-02T02:42:39.577Z,0
2016-09-02T02:43:55.154Z,0
2016-09-02T02:44:39.149Z,0
2016-09-02T02:45:53.400Z,0
2016-09-02T02:46:39.500Z,0
2016-09-02T02:47:39.481Z,0
2016-09-02T02:48:38.699Z,0
2016-09-02T02:49:38.711Z,0
2016-09-02T02:50:38.610Z,0
2016-09-02T02:51:39.392Z,0
2016-09-02T02:53:38.778Z,0
2016-09-02T02:54:38.561Z,0
2016-09-02T02:55:40.127Z,0
2016-09-02T02:56:39.778Z,0
2016-09-02T02:57:38.760Z,0
2016-09-02T02:58:39.192Z,0
2016-09-02T02:59:38.446Z,0
2016-09-02T03:00:38.773Z,0
2016-09-02T03:01:39.179Z,0
2016-09-02T03:02:38.333Z,0
2016-09-02T03:04:07.629Z,0
2016-09-02T03:04:52.925Z,0
2016-09-02T03:05:52.916Z,0
2016-09-02T03:06:38.188Z,0
2016-09-02T03:07:53.650Z,0
2016-09-02T03:08:38.166Z,0
2016-09-02T03:09:39.107Z,0
2016-09-02T03:10:38.179Z,0
2016-09-02T03:11:38.071Z,0
2016-09-02T03:12:38.262Z,0
2016-09-02T03:13:38.800Z,0
2016-09-02T03:14:38.102Z,0
2016-09-02T03:15:40.041Z,0
2016-09-02T03:16:37.953Z,0
2016-09-02T03:17:39.529Z,0
2016-09-02T03:18:37.902Z,0
2016-09-02T03:19:38.701Z,0
2016-09-02T03:20:38.630Z,0
2016-09-02T03:22:39.767Z,0
2016-09-02T03:23:52.450Z,0
2016-09-02T03:24:38.560Z,0
2016-09-02T03:25:38.520Z,0
2016-09-02T03:26:37.711Z,0
2016-09-02T03:27:38.484Z,0
2016-09-02T03:28:37.704Z,0
2016-09-02T03:29:38.546Z,0
2016-09-02T03:30:38.424Z,0
2016-09-02T03:31:39.379Z,0
2016-09-02T03:32:37.540Z,0
2016-09-02T03:33:37.650Z,0
2016-09-02T03:34:38.424Z,0
2016-09-02T03:35:38.975Z,0
2016-09-02T03:36:38.224Z,0
2016-09-02T03:37:38.190Z,0
2016-09-02T03:38:38.183Z,0
2016-09-02T03:39:37.358Z,0
2016-09-02T03:40:37.365Z,0
2016-09-02T03:41:38.409Z,0
2016-09-02T03:42:37.303Z,0
2016-09-02T03:43:37.262Z,0
2016-09-02T03:44:38.011Z,0
2016-09-02T03:45:38.011Z,0
2016-09-02T03:46:37.178Z,0
2016-09-02T03:47:38.078Z,0
2016-09-02T03:48:51.808Z,0
2016-09-02T03:49:38.027Z,0
2016-09-02T03:50:52.962Z,0
2016-09-02T03:51:37.984Z,0
2016-09-02T03:52:53.483Z,0
2016-09-02T03:53:37.019Z,0
2016-09-02T03:54:37.778Z,0
2016-09-02T03:55:37.783Z,0
2016-09-02T03:56:36.918Z,0
2016-09-02T03:57:37.691Z,0
2016-09-02T03:58:38.246Z,0
2016-09-02T03:59:51.562Z,0
2016-09-02T04:00:37.834Z,0
2016-09-02T04:01:51.476Z,0
2016-09-02T04:02:38.107Z,0
2016-09-02T04:03:37.528Z,0
2016-09-02T04:04:36.748Z,0
2016-09-02T04:05:36.749Z,0
2016-09-02T04:06:36.676Z,0
2016-09-02T04:07:38.196Z,0
2016-09-02T04:08:36.628Z,0
2016-09-02T04:09:36.605Z,0
2016-09-02T04:10:36.563Z,0
2016-09-02T04:11:36.529Z,0
2016-09-02T04:12:36.534Z,0
2016-09-02T04:13:37.690Z,0
2016-09-02T04:15:39.030Z,0
2016-09-02T04:16:42.677Z,0
2016-09-02T04:17:37.243Z,0
2016-09-02T04:18:36.409Z,0
2016-09-02T04:19:37.650Z,0
2016-09-02T04:20:36.388Z,0
2016-09-02T04:21:36.297Z,0
2016-09-02T04:22:38.703Z,0
2016-09-02T04:23:36.269Z,0
2016-09-02T04:24:36.227Z,4
2016-09-02T04:25:50.888Z,0
2016-09-02T04:26:37.229Z,4
2016-09-02T04:27:50.850Z,4
2016-09-02T04:28:36.900Z,0
2016-09-02T04:29:36.865Z,4
2016-09-02T04:30:36.864Z,4
2016-09-02T04:31:36.818Z,4
2016-09-02T04:32:37.315Z,8
2016-09-02T04:33:35.981Z,4
2016-09-02T04:34:50.637Z,8
2016-09-02T04:35:36.810Z,12
2016-09-02T04:36:37.590Z,12
2016-09-02T04:37:35.892Z,12
2016-09-02T04:38:37.797Z,12
2016-09-02T04:39:35.830Z,12
2016-09-02T04:40:35.867Z,12
2016-09-02T04:41:51.590Z,16
2016-09-02T04:42:35.827Z,16
2016-09-02T04:43:35.792Z,16
2016-09-02T04:44:35.796Z,16
2016-09-02T04:45:37.639Z,20
2016-09-02T04:46:36.780Z,20
2016-09-02T04:47:35.634Z,24
2016-09-02T04:48:41.821Z,24
2016-09-02T04:49:35.556Z,28
2016-09-02T04:50:37.471Z,32
2016-09-02T04:51:36.359Z,32
2016-09-02T04:52:35.645Z,40
2016-09-02T04:53:35.470Z,44
2016-09-02T04:54:35.452Z,48
2016-09-02T04:55:35.562Z,52
2016-09-02T04:56:35.383Z,60
2016-09-02T04:57:35.352Z,64
2016-09-02T04:58:35.385Z,64
2016-09-02T04:59:35.366Z,72
2016-09-02T05:00:35.355Z,72
2016-09-02T05:01:35.249Z,80
2016-09-02T05:03:36.051Z,80
2016-09-02T05:04:35.268Z,84
2016-09-02T05:05:36.392Z,88
2016-09-02T05:06:35.999Z,88
2016-09-02T05:07:35.090Z,92
2016-09-02T05:08:35.084Z,92
2016-09-02T05:09:50.812Z,100
2016-09-02T05:10:35.026Z,100
2016-09-02T05:11:36.623Z,104
2016-09-02T05:12:34.960Z,108
2016-09-02T05:13:34.945Z,108
2016-09-02T05:14:36.124Z,112
2016-09-02T05:15:50.623Z,116
2016-09-02T05:16:50.365Z,128
2016-09-02T05:17:34.931Z,132
2016-09-02T05:18:50.340Z,132
2016-09-02T05:19:35.623Z,124
2016-09-02T05:21:34.807Z,120
2016-09-02T05:23:04.070Z,124
2016-09-02T05:23:36.247Z,124
2016-09-02T05:24:36.615Z,124
2016-09-02T05:25:35.456Z,128
2016-09-02T05:26:35.408Z,132
2016-09-02T05:27:35.401Z,136
2016-09-02T05:28:34.583Z,148
2016-09-02T05:29:34.569Z,160
2016-09-02T05:30:34.519Z,172
2016-09-02T05:31:49.154Z,180
2016-09-02T05:32:35.634Z,188
2016-09-02T05:33:34.500Z,196
2016-09-02T05:34:34.398Z,200
2016-09-02T05:35:37.267Z,208
2016-09-02T05:36:34.417Z,216
2016-09-02T05:37:34.501Z,224
2016-09-02T05:38:35.775Z,232
2016-09-02T05:39:34.474Z,244
2016-09-02T05:40:49.772Z,256
2016-09-02T05:41:34.983Z,260
2016-09-02T05:42:34.989Z,264
2016-09-02T05:43:34.999Z,268
2016-09-02T05:44:34.228Z,264
2016-09-02T05:45:35.315Z,264
2016-09-02T05:46:35.127Z,256
2016-09-02T05:47:34.118Z,252
2016-09-02T05:48:35.653Z,240
2016-09-02T05:49:34.827Z,228
2016-09-02T05:50:49.908Z,236
2016-09-02T05:51:34.100Z,240
2016-09-02T05:52:34.866Z,228
2016-09-02T05:54:33.882Z,240
2016-09-02T05:55:35.623Z,256
2016-09-02T05:56:48.901Z,268
2016-09-02T05:57:34.153Z,276
2016-09-02T05:58:34.690Z,280
2016-09-02T05:59:34.611Z,268
2016-09-02T06:00:33.981Z,268
2016-09-02T06:02:34.459Z,304
2016-09-02T06:03:34.437Z,316
2016-09-02T06:04:34.457Z,328
2016-09-02T06:05:34.634Z,348
2016-09-02T06:06:33.684Z,368
2016-09-02T06:07:34.525Z,376
2016-09-02T06:08:33.629Z,396
2016-09-02T06:09:33.515Z,412
2016-09-02T06:10:34.306Z,424
2016-09-02T06:12:33.463Z,444
2016-09-02T06:13:48.064Z,464
2016-09-02T06:14:34.167Z,468
2016-09-02T06:15:49.700Z,480
2016-09-02T06:16:34.162Z,488
2016-09-02T06:17:34.150Z,500
2016-09-02T06:18:34.064Z,496
2016-09-02T06:19:34.035Z,508
2016-09-02T06:20:35.562Z,512
2016-09-02T06:21:33.994Z,516
2016-09-02T06:22:48.689Z,528
2016-09-02T06:23:33.931Z,532
2016-09-02T06:24:33.909Z,536
2016-09-02T06:25:33.972Z,544
2016-09-02T06:26:33.888Z,544
2016-09-02T06:27:47.740Z,540
2016-09-02T06:28:35.528Z,536
2016-09-02T06:29:50.436Z,516
2016-09-02T06:30:33.785Z,512
2016-09-02T06:31:37.789Z,516
2016-09-02T06:32:33.701Z,520
2016-09-02T06:33:33.914Z,536
2016-09-02T06:34:32.932Z,548
2016-09-02T06:35:48.555Z,556
2016-09-02T06:36:38.738Z,560
2016-09-02T06:37:33.011Z,552
2016-09-02T06:38:32.795Z,544
2016-09-02T06:39:33.018Z,540
2016-09-02T06:40:33.073Z,524
2016-09-02T06:41:33.491Z,516
2016-09-02T06:42:32.691Z,504
2016-09-02T06:43:32.672Z,492
2016-09-02T06:44:32.629Z,488
2016-09-02T06:45:47.295Z,496
2016-09-02T06:46:33.532Z,500
2016-09-02T06:47:33.366Z,508
2016-09-02T06:48:32.576Z,516
2016-09-02T06:49:32.512Z,516
2016-09-02T06:50:32.467Z,520
2016-09-02T06:51:33.545Z,524
2016-09-02T06:52:48.002Z,544
2016-09-02T06:53:33.307Z,556
2016-09-02T06:54:33.831Z,568
2016-09-02T06:55:33.667Z,580
2016-09-02T06:56:33.825Z,592
2016-09-02T06:57:32.411Z,600
2016-09-02T06:58:32.349Z,620
2016-09-02T06:59:32.273Z,620
2016-09-02T07:00:33.231Z,632
2016-09-02T07:01:32.254Z,640
2016-09-02T07:02:32.252Z,644
2016-09-02T07:03:32.163Z,664
2016-09-02T07:04:32.902Z,664
2016-09-02T07:05:33.775Z,668
2016-09-02T07:06:32.942Z,672
2016-09-02T07:07:33.721Z,672
2016-09-02T07:08:34.028Z,656
2016-09-02T07:09:33.594Z,648
2016-09-02T07:10:33.109Z,636
2016-09-02T07:11:32.884Z,624
2016-09-02T07:12:33.577Z,620
2016-09-02T07:13:32.085Z,600
2016-09-02T07:14:33.468Z,596
2016-09-02T07:15:32.835Z,596
2016-09-02T07:16:47.395Z,596
2016-09-02T07:17:32.609Z,600
2016-09-02T07:18:31.801Z,608
2016-09-02T07:19:31.847Z,616
2016-09-02T07:20:31.751Z,620
2016-09-02T07:21:32.536Z,628
2016-09-02T07:22:34.270Z,644
2016-09-02T07:23:31.673Z,648
2016-09-02T07:24:33.222Z,656
2016-09-02T07:25:31.680Z,660
2016-09-02T07:26:32.365Z,660
2016-09-02T07:27:47.483Z,668
2016-09-02T07:28:46.449Z,688
2016-09-02T07:29:32.525Z,680
2016-09-02T07:30:31.550Z,672
2016-09-02T07:31:46.136Z,676
2016-09-02T07:32:32.600Z,676
2016-09-02T07:33:31.788Z,668
2016-09-02T07:34:31.504Z,660
2016-09-02T07:35:32.796Z,632
2016-09-02T07:36:32.112Z,640
2016-09-02T07:37:32.947Z,644
2016-09-02T07:38:32.624Z,612
2016-09-02T07:39:32.069Z,608
2016-09-02T07:40:32.357Z,608
2016-09-02T07:42:00.633Z,608
2016-09-02T07:42:31.203Z,604
2016-09-02T07:43:31.251Z,588
2016-09-02T07:44:45.874Z,600
2016-09-02T07:45:45.807Z,612
2016-09-02T07:46:33.667Z,628
2016-09-02T07:47:31.090Z,632
2016-09-02T07:48:33.013Z,620
2016-09-02T07:49:32.099Z,612
2016-09-02T07:50:33.164Z,612
2016-09-02T07:51:32.639Z,600
2016-09-02T07:52:31.102Z,584
2016-09-02T07:53:31.755Z,616
2016-09-02T07:54:32.569Z,600
2016-09-02T07:55:32.460Z,620
2016-09-02T07:56:31.628Z,624
2016-09-02T07:58:31.608Z,592
2016-09-02T07:59:30.786Z,600
2016-09-02T08:00:30.809Z,600
2016-09-02T08:01:32.892Z,624
2016-09-02T08:02:45.708Z,616
2016-09-02T08:03:31.612Z,628
2016-09-02T08:04:30.996Z,644
2016-09-02T08:05:33.413Z,632
2016-09-02T08:06:33.160Z,628
2016-09-02T08:07:32.268Z,652
2016-09-02T08:08:45.830Z,660
2016-09-02T08:09:32.239Z,644
2016-09-02T08:10:31.284Z,664
2016-09-02T08:11:30.533Z,656
2016-09-02T08:12:47.047Z,660
2016-09-02T08:13:45.118Z,648
2016-09-02T08:14:46.184Z,664
2016-09-02T08:15:31.592Z,648
2016-09-02T08:16:45.826Z,652
2016-09-02T08:17:32.132Z,656
2016-09-02T08:18:45.792Z,676
2016-09-02T08:19:45.757Z,660
2016-09-02T08:20:31.914Z,676
2016-09-02T08:21:30.306Z,680
2016-09-02T08:22:31.882Z,680
2016-09-02T08:23:31.040Z,676
2016-09-02T08:24:30.171Z,668
2016-09-02T08:25:31.544Z,688
2016-09-02T08:26:32.196Z,688
2016-09-02T08:27:30.065Z,708
2016-09-02T08:28:30.951Z,724
2016-09-02T08:29:31.883Z,740
2016-09-02T08:30:30.077Z,728
2016-09-02T08:31:31.145Z,760
2016-09-02T08:32:30.152Z,796
2016-09-02T08:33:31.529Z,824
2016-09-02T08:34:31.064Z,852
2016-09-02T08:35:32.795Z,872
2016-09-02T08:36:45.328Z,884
2016-09-02T08:37:30.856Z,888
2016-09-02T08:38:29.904Z,900
2016-09-02T08:39:31.178Z,900
2016-09-02T08:40:29.923Z,888
2016-09-02T08:41:30.595Z,896
2016-09-02T08:42:31.451Z,916
2016-09-02T08:43:31.283Z,908
2016-09-02T08:44:31.041Z,908
2016-09-02T08:45:30.551Z,908
2016-09-02T08:46:29.758Z,908
2016-09-02T08:47:30.411Z,852
2016-09-02T08:48:30.390Z,728
2016-09-02T08:49:45.064Z,760
2016-09-02T08:50:31.282Z,780
2016-09-02T08:51:30.378Z,808
2016-09-02T08:52:31.211Z,808
2016-09-02T08:53:44.937Z,676
2016-09-02T08:54:29.521Z,568
2016-09-02T08:55:30.309Z,512
2016-09-02T08:56:32.017Z,652
2016-09-02T08:57:29.367Z,868
2016-09-02T08:58:44.259Z,972
2016-09-02T08:59:44.070Z,780
2016-09-02T09:00:30.078Z,864
2016-09-02T09:01:31.755Z,880
2016-09-02T09:02:30.036Z,716
2016-09-02T09:03:45.154Z,788
2016-09-02T09:04:32.080Z,744
2016-09-02T09:05:30.357Z,772
2016-09-02T09:06:31.126Z,736
2016-09-02T09:07:30.752Z,576
2016-09-02T09:08:30.408Z,824
2016-09-02T09:09:30.156Z,876
2016-09-02T09:10:43.701Z,636
2016-09-02T09:11:29.918Z,884
2016-09-02T09:12:30.903Z,936
2016-09-02T09:13:29.836Z,1036
2016-09-02T09:14:45.564Z,1052
2016-09-02T09:15:31.397Z,1080
2016-09-02T09:16:29.138Z,804
2016-09-02T09:17:29.697Z,948
2016-09-02T09:18:30.559Z,1100
2016-09-02T09:19:29.719Z,1048
2016-09-02T09:20:30.804Z,1212
2016-09-02T09:21:30.500Z,1332
2016-09-02T09:22:29.004Z,1540
2016-09-02T09:23:29.534Z,1516
2016-09-02T09:24:28.856Z,1572
2016-09-02T09:25:30.067Z,1128
2016-09-02T09:26:44.662Z,1204
2016-09-02T09:27:29.440Z,1296
2016-09-02T09:28:28.788Z,924
2016-09-02T09:29:28.775Z,676
2016-09-02T09:30:29.581Z,712
2016-09-02T09:31:29.384Z,608
2016-09-02T09:32:45.980Z,588
2016-09-02T09:33:30.115Z,576
2016-09-02T09:34:29.269Z,620
2016-09-02T09:35:30.055Z,664
2016-09-02T09:36:29.399Z,644
2016-09-02T09:37:30.007Z,816
2016-09-02T09:38:28.470Z,724
2016-09-02T09:39:28.358Z,656
2016-09-02T09:40:30.122Z,684
2016-09-02T09:41:43.001Z,964
2016-09-02T09:42:28.311Z,988
2016-09-02T09:43:30.873Z,964
2016-09-02T09:44:28.304Z,1000
2016-09-02T09:45:43.842Z,904
2016-09-02T09:46:28.280Z,1084
2016-09-02T09:47:28.168Z,1116
2016-09-02T09:48:29.163Z,1128
2016-09-02T09:49:28.470Z,1296
2016-09-02T09:50:30.372Z,1292
2016-09-02T09:51:28.993Z,1452
2016-09-02T09:53:29.614Z,1268
2016-09-02T09:54:29.686Z,1180
2016-09-02T09:55:28.516Z,1140
2016-09-02T09:56:43.449Z,1016
2016-09-02T09:58:28.948Z,928
2016-09-02T09:59:42.590Z,940
2016-09-02T10:00:30.803Z,1048
2016-09-02T10:01:30.132Z,964
2016-09-02T10:02:44.878Z,968
2016-09-02T10:03:59.327Z,1036
2016-09-02T10:04:45.209Z,1156
2016-09-02T10:05:44.460Z,1236
2016-09-02T10:06:30.935Z,1420
2016-09-02T10:07:57.228Z,1508
2016-09-02T10:09:30.183Z,1552
2016-09-02T10:12:06.418Z,1392
2016-09-02T10:12:52.649Z,1460
2016-09-02T10:14:07.124Z,1524
2016-09-02T10:14:54.007Z,1548
2016-09-02T10:15:50.715Z,1660
2016-09-02T10:16:53.461Z,1572
2016-09-02T10:17:50.700Z,1492
2016-09-02T10:19:06.349Z,1504
2016-09-02T10:19:52.220Z,1504
2016-09-02T10:20:50.563Z,1572
2016-09-02T10:22:06.757Z,1424
2016-09-02T10:22:50.567Z,1428
2016-09-02T10:23:50.633Z,1472
2016-09-02T10:25:52.718Z,1192
2016-09-02T10:27:51.249Z,1244
2016-09-02T10:28:51.199Z,1344
2016-09-02T10:29:51.973Z,1360
2016-09-02T10:31:05.437Z,1372
2016-09-02T10:31:53.184Z,1372
2016-09-02T10:33:51.845Z,1400
2016-09-02T10:35:51.899Z,1312
2016-09-02T10:36:52.338Z,1132
2016-09-02T10:38:06.128Z,1056
2016-09-02T10:38:51.409Z,1128
2016-09-02T10:39:51.191Z,1032
2016-09-02T10:41:05.966Z,972
2016-09-02T10:41:52.675Z,1000
2016-09-02T10:43:50.005Z,1032
2016-09-02T10:44:51.988Z,1112
2016-09-02T10:45:51.651Z,1228
2016-09-02T10:46:50.747Z,1212
2016-09-02T10:48:05.440Z,1184
2016-09-02T10:48:50.074Z,1240
2016-09-02T10:49:49.945Z,1336
2016-09-02T10:50:52.431Z,1424
2016-09-02T10:53:04.506Z,1424
2016-09-02T10:53:51.840Z,1424
2016-09-02T10:55:05.035Z,1272
2016-09-02T10:55:51.475Z,1144
2016-09-02T10:57:04.745Z,1016
2016-09-02T10:57:50.479Z,980
2016-09-02T10:58:50.843Z,1100
2016-09-02T10:59:50.791Z,1116
2016-09-02T11:00:51.502Z,1108
2016-09-02T11:01:51.450Z,1072
2016-09-02T11:02:51.789Z,1088
2016-09-02T11:03:50.476Z,1072
2016-09-02T11:04:49.646Z,1084
2016-09-02T11:05:50.885Z,1092
2016-09-02T11:06:51.179Z,1124
2016-09-02T11:10:05.997Z,1196
2016-09-02T11:12:05.896Z,1388
2016-09-02T11:12:49.765Z,1300
2016-09-02T11:14:06.078Z,1284
2016-09-02T11:14:52.370Z,1280
2016-09-02T11:16:04.968Z,1316
2016-09-02T11:17:03.904Z,1308
2016-09-02T11:17:49.455Z,1332
2016-09-02T11:18:51.601Z,1316
2016-09-02T11:19:50.063Z,1324
2016-09-02T11:21:18.846Z,1392
2016-09-02T11:21:50.890Z,1348
2016-09-02T11:23:03.869Z,1280
2016-09-02T11:23:51.040Z,1272
2016-09-02T11:24:51.194Z,1292
2016-09-02T11:25:50.706Z,1348
2016-09-02T11:26:50.234Z,1352
2016-09-02T11:27:50.736Z,1364
2016-09-02T11:28:51.605Z,1404
2016-09-02T11:30:04.632Z,1472
2016-09-02T11:30:50.234Z,1476
2016-09-02T11:31:48.965Z,1524
2016-09-02T11:32:51.213Z,1568
2016-09-02T11:33:49.011Z,1584
2016-09-02T11:34:49.432Z,1596
2016-09-02T11:35:48.909Z,1536
2016-09-02T11:36:48.783Z,1524
2016-09-02T11:39:50.422Z,1576
2016-09-02T11:40:51.743Z,1648
2016-09-02T11:41:49.711Z,1608
2016-09-02T11:42:49.866Z,1628
2016-09-02T11:43:50.234Z,1764
2016-09-02T11:44:49.890Z,1692
2016-09-02T11:45:50.072Z,1656
2016-09-02T11:46:49.331Z,1644
2016-09-02T11:48:19.483Z,1776
2016-09-02T11:49:05.410Z,1736
2016-09-02T11:49:49.387Z,1800
2016-09-02T11:53:03.989Z,1732
2016-09-02T11:53:48.403Z,1736
2016-09-02T11:54:49.447Z,2204
2016-09-02T11:55:49.792Z,1848
2016-09-02T11:56:50.765Z,2004
2016-09-02T11:57:50.635Z,3636
2016-09-02T11:58:48.326Z,2328
2016-09-02T12:00:02.956Z,8060
2016-09-02T12:00:49.159Z,10208
2016-09-02T12:02:03.716Z,11452
2016-09-02T12:02:52.379Z,17728
2016-09-02T12:03:48.304Z,23872
2016-09-02T12:06:19.018Z,3088
2016-09-02T12:06:49.577Z,7592
2016-09-02T12:08:03.986Z,1872
2016-09-02T12:08:50.649Z,2484
2016-09-02T12:09:50.417Z,5956
2016-09-02T12:10:49.133Z,4072
2016-09-02T12:12:03.473Z,9004
2016-09-02T12:12:52.554Z,5892
2016-09-02T12:13:55.430Z,3728
2016-09-02T12:14:49.041Z,4772
2016-09-02T12:15:50.486Z,8324
2016-09-02T12:16:48.914Z,2644
2016-09-02T12:17:50.391Z,5672
2016-09-02T12:18:50.760Z,3236
2016-09-02T12:19:51.218Z,2456
2016-09-02T12:21:03.436Z,2380
2016-09-02T12:21:48.407Z,2300
2016-09-02T12:24:49.662Z,2192
2016-09-02T12:25:51.121Z,2328
2016-09-02T12:26:49.893Z,2184
2016-09-02T12:27:49.925Z,2240
2016-09-02T12:28:48.655Z,2120
2016-09-02T12:30:03.593Z,2060
2016-09-02T12:32:03.828Z,2156
2016-09-02T12:32:47.526Z,2384
2016-09-02T12:33:48.639Z,2772
2016-09-02T12:34:49.415Z,3800
2016-09-02T12:35:52.439Z,2800
2016-09-02T12:36:48.512Z,2424
2016-09-02T12:37:49.443Z,2156
2016-09-02T12:38:48.549Z,2184
2016-09-02T12:40:02.907Z,2188
2016-09-02T12:41:31.373Z,2132
2016-09-02T12:41:48.245Z,2196
2016-09-02T12:43:03.087Z,2172
2016-09-02T12:43:48.760Z,2116
2016-09-02T12:44:49.790Z,2724
2016-09-02T12:45:49.172Z,2132
2016-09-02T12:46:49.798Z,2168
2016-09-02T12:48:03.108Z,2208
2016-09-02T12:49:03.342Z,2204
2016-09-02T12:49:50.671Z,2216
2016-09-02T12:51:01.926Z,2144
2016-09-02T12:52:01.954Z,2252
2016-09-02T12:52:50.034Z,2340
2016-09-02T12:54:02.908Z,2276
2016-09-02T12:55:02.955Z,2212
2016-09-02T12:57:04.692Z,2256
2016-09-02T12:57:47.861Z,2356
2016-09-02T12:58:49.220Z,2184
2016-09-02T13:01:49.227Z,2704
2016-09-02T13:02:49.123Z,3040
2016-09-02T13:04:02.896Z,2528
2016-09-02T13:05:04.028Z,2552
2016-09-02T13:06:05.348Z,4328
2016-09-02T13:06:48.105Z,2500
2016-09-02T13:07:50.729Z,3084
2016-09-02T13:09:02.731Z,2872
2016-09-02T13:09:50.413Z,2932
2016-09-02T13:10:51.075Z,2884
2016-09-02T13:12:50.338Z,3628
2016-09-02T13:14:50.970Z,3248
2016-09-02T13:16:50.546Z,6000
2016-09-02T13:18:05.363Z,4224
2016-09-02T13:18:49.782Z,2908
2016-09-02T13:19:50.541Z,3224
2016-09-02T13:22:04.214Z,8664
2016-09-02T13:23:06.187Z,9264
2016-09-02T13:24:03.496Z,10444
2016-09-02T13:24:48.838Z,10404
2016-09-02T13:25:49.581Z,13676
2016-09-02T13:26:48.608Z,11016
2016-09-02T13:27:47.790Z,6080
2016-09-02T13:31:04.438Z,4548
2016-09-02T13:31:48.905Z,6052
2016-09-02T13:33:02.611Z,13600
2016-09-02T13:33:48.695Z,8620
2016-09-02T13:34:51.859Z,12060
2016-09-02T13:35:48.153Z,19904
2016-09-02T13:36:51.946Z,10144
2016-09-02T13:38:17.661Z,5976
2016-09-02T13:38:49.984Z,5016
2016-09-02T13:39:50.517Z,4036
2016-09-02T13:40:50.227Z,4000
2016-09-02T13:41:51.430Z,6252
2016-09-02T13:43:50.717Z,4184
2016-09-02T13:44:49.346Z,4476
2016-09-02T13:47:05.446Z,5436
2016-09-02T13:47:51.356Z,8032
2016-09-02T13:48:48.225Z,7632
2016-09-02T13:50:49.305Z,8116
2016-09-02T13:53:17.824Z,9124
2016-09-02T13:53:51.663Z,14304
2016-09-02T13:55:17.079Z,12988
2016-09-02T13:56:49.338Z,10584
2016-09-02T13:58:17.776Z,8652
2016-09-02T13:59:04.727Z,7252
2016-09-02T13:59:48.042Z,10384
2016-09-02T14:00:49.930Z,14140
2016-09-02T14:01:49.269Z,15588
2016-09-02T14:02:50.175Z,14000
2016-09-02T14:03:50.232Z,12100
2016-09-02T14:04:49.697Z,12288
2016-09-02T14:06:03.145Z,9812
2016-09-02T14:07:02.801Z,6120
2016-09-02T14:08:01.557Z,7260
2016-09-02T14:09:02.611Z,9888
2016-09-02T14:09:49.075Z,11172
2016-09-02T14:10:50.983Z,9380
2016-09-02T14:12:52.535Z,28544
2016-09-02T14:14:02.889Z,32448
2016-09-02T14:15:01.551Z,26592
2016-09-02T14:15:50.931Z,20352
2016-09-02T14:18:03.379Z,11092
2016-09-02T14:18:49.380Z,10084
2016-09-02T14:21:05.100Z,12736
2016-09-02T14:21:49.714Z,15380
2016-09-02T14:22:50.667Z,17152
2016-09-02T14:24:01.472Z,24928
2016-09-02T14:24:50.998Z,19744
2016-09-02T14:26:15.782Z,18592
2016-09-02T14:26:52.744Z,5680
2016-09-02T14:28:04.661Z,5720
2016-09-02T14:28:47.959Z,4916
2016-09-02T14:29:49.433Z,4932
2016-09-02T14:30:46.835Z,4692
2016-09-02T14:31:48.422Z,4264
2016-09-02T14:33:03.816Z,4948
2016-09-02T14:33:47.217Z,6812
2016-09-02T14:35:48.290Z,3732
2016-09-02T14:37:16.011Z,3452
2016-09-02T14:38:01.846Z,3536
2016-09-02T14:39:03.188Z,3376
2016-09-02T14:40:17.935Z,3320
2016-09-02T14:41:02.590Z,3240
2016-09-02T14:42:02.182Z,3496
2016-09-02T14:43:02.129Z,4144
2016-09-02T14:45:03.021Z,4900
2016-09-02T14:46:08.662Z,4992
2016-09-02T14:46:47.903Z,4652
2016-09-02T14:48:05.015Z,4256
2016-09-02T14:49:06.550Z,3500